Time;durP1;ratioP1;P1;durP2;ratioP2;P2;SDS_P1;SDS_P2;PMS_P1;PMS_P2;Temp;Humidity;BMP_temperature;BMP_pressure;BME280_temperature;BME280_humidity;BME280_pressure;Samples;Min_cycle;Max_cycle;Signal;HPM_P1;HPM_P2
2021/12/13 00:00:17;;;;;;;111.87;33.73;;;;;;;-0.83;100.00;101583.00;10457876;28;20742;-67
2021/12/13 00:05:44;;;;;;;115.30;32.47;;;;;;;-0.87;100.00;101586.16;10457666;28;20224;-67
2021/12/13 00:10:52;;;;;;;126.37;34.27;;;;;;;-0.84;100.00;101595.63;10457621;28;20235;-68
2021/12/13 00:15:59;;;;;;;114.77;35.63;;;;;;;-0.84;100.00;101588.88;10457280;28;20239;-67
2021/12/13 00:21:08;;;;;;;110.90;32.37;;;;;;;-0.77;100.00;101592.63;10456965;28;20189;-66
2021/12/13 00:26:12;;;;;;;101.50;31.50;;;;;;;-0.79;100.00;101602.75;10456717;28;20676;-65
2021/12/13 00:31:25;;;;;;;109.80;32.47;;;;;;;-0.76;100.00;101600.34;10456707;28;20705;-68
2021/12/13 00:36:34;;;;;;;112.97;33.00;;;;;;;-0.81;100.00;101606.00;10455924;28;20676;-66
2021/12/13 00:41:38;;;;;;;116.70;32.53;;;;;;;-0.79;100.00;101602.75;10456359;28;20189;-67
2021/12/13 00:46:45;;;;;;;110.43;33.67;;;;;;;-0.83;100.00;101613.56;10455955;28;20236;-66
2021/12/13 00:51:56;;;;;;;94.53;30.83;;;;;;;-0.85;100.00;101604.06;10455935;28;20185;-65
2021/12/13 00:57:37;;;;;;;106.37;30.23;;;;;;;-0.83;100.00;101599.94;10477001;28;20207;-69
2021/12/13 01:02:46;;;;;;;99.33;30.63;;;;;;;-0.79;100.00;101607.84;10497282;28;20222;-67
2021/12/13 01:08:11;;;;;;;101.43;30.23;;;;;;;-0.80;100.00;101603.53;10497065;28;20645;-66
2021/12/13 01:13:22;;;;;;;102.43;31.00;;;;;;;-0.87;100.00;101606.53;10497220;28;20708;-66
2021/12/13 01:18:36;;;;;;;102.37;31.73;;;;;;;-0.76;100.00;101602.03;10496848;28;20224;-66
2021/12/13 01:23:47;;;;;;;103.73;32.27;;;;;;;-0.75;100.00;101594.47;10497941;28;20212;-71
2021/12/13 01:28:56;;;;;;;92.63;30.07;;;;;;;-0.76;100.00;101600.34;10498621;28;20226;-67
2021/12/13 01:34:02;;;;;;;100.67;29.77;;;;;;;-0.83;100.00;101600.84;10499114;28;20240;-68
2021/12/13 01:39:10;;;;;;;101.37;31.37;;;;;;;-0.83;100.00;101613.56;10499442;28;20551;-66
2021/12/13 01:44:16;;;;;;;90.33;29.10;;;;;;;-0.80;100.00;101616.28;10499338;28;20216;-66
2021/12/13 01:49:30;;;;;;;98.10;30.37;;;;;;;-0.71;100.00;101598.06;10506616;28;20216;-64
2021/12/13 01:54:40;;;;;;;97.47;31.93;;;;;;;-0.70;100.00;101597.25;10506783;28;20219;-66
2021/12/13 01:59:52;;;;;;;91.60;29.90;;;;;;;-0.62;100.00;101598.56;10506679;28;20219;-65
2021/12/13 02:05:00;;;;;;;89.43;31.13;;;;;;;-0.64;100.00;101587.41;10506500;28;20661;-67
2021/12/13 02:10:12;;;;;;;92.87;30.90;;;;;;;-0.64;100.00;101589.97;10506027;28;20248;-67
2021/12/13 02:20:43;;;;;;;94.67;30.17;;;;;;;-0.63;100.00;101591.72;10505829;28;20230;-66
2021/12/13 02:25:50;;;;;;;90.57;28.00;;;;;;;-0.58;100.00;101598.81;10505407;28;20216;-67
2021/12/13 02:30:57;;;;;;;102.03;30.57;;;;;;;-0.57;100.00;101590.34;10505462;28;20220;-64
2021/12/13 02:36:06;;;;;;;91.33;29.97;;;;;;;-0.56;100.00;101592.13;10505050;28;20304;-67
2021/12/13 02:41:11;;;;;;;87.10;29.80;;;;;;;-0.62;100.00;101594.34;10505183;28;20692;-64
2021/12/13 02:46:16;;;;;;;93.07;27.53;;;;;;;-0.63;100.00;101604.44;10504396;28;20231;-67
2021/12/13 02:51:26;;;;;;;92.30;26.67;;;;;;;-0.63;100.00;101610.44;10504525;28;20220;-64
2021/12/13 02:56:36;;;;;;;89.53;29.83;;;;;;;-0.61;100.00;101602.88;10503839;28;20222;-68
2021/12/13 03:01:42;;;;;;;104.90;29.33;;;;;;;-0.64;100.00;101595.91;10504667;28;20247;-65
2021/12/13 03:06:50;;;;;;;88.53;28.70;;;;;;;-0.56;100.00;101593.78;10503818;28;20303;-67
2021/12/13 03:11:56;;;;;;;90.13;30.60;;;;;;;-0.53;100.00;101583.75;10503999;28;20231;-65
2021/12/13 03:17:05;;;;;;;83.33;27.50;;;;;;;-0.47;100.00;101586.66;10503575;28;20652;-65
2021/12/13 03:22:22;;;;;;;95.43;28.37;;;;;;;-0.46;100.00;101591.81;10503224;28;20226;-69
2021/12/13 03:27:49;;;;;;;89.97;26.53;;;;;;;-0.39;100.00;101596.44;10502845;28;20220;-65
2021/12/13 03:32:56;;;;;;;84.47;27.07;;;;;;;-0.31;100.00;101595.19;10503285;28;20307;-65
2021/12/13 03:38:02;;;;;;;91.43;28.20;;;;;;;-0.34;100.00;101600.13;10502655;28;20220;-64
2021/12/13 03:43:11;;;;;;;82.23;25.57;;;;;;;-0.32;100.00;101593.44;10502329;28;20220;-65
2021/12/13 03:48:17;;;;;;;72.57;23.57;;;;;;;-0.36;100.00;101583.84;10501836;28;20228;-67
2021/12/13 03:53:24;;;;;;;68.87;23.60;;;;;;;-0.28;100.00;101587.72;10502612;28;20234;-68
2021/12/13 03:58:33;;;;;;;73.17;23.97;;;;;;;-0.34;100.00;101592.47;10501852;28;20310;-65
2021/12/13 04:03:38;;;;;;;73.83;23.60;;;;;;;-0.30;100.00;101584.19;10501382;28;20216;-67
2021/12/13 04:08:44;;;;;;;66.40;21.80;;;;;;;-0.31;100.00;101596.88;10500799;28;20228;-67
2021/12/13 04:13:55;;;;;;;68.73;21.23;;;;;;;-0.38;100.00;101589.69;10501701;28;20239;-66
2021/12/13 04:19:07;;;;;;;52.57;18.13;;;;;;;-0.37;100.00;101599.09;10501131;28;20624;-64
2021/12/13 04:24:14;;;;;;;58.87;20.23;;;;;;;-0.32;100.00;101603.63;10500960;28;20226;-68
2021/12/13 04:29:25;;;;;;;56.03;20.67;;;;;;;-0.37;100.00;101597.41;10500624;28;20219;-67
2021/12/13 04:34:29;;;;;;;57.43;21.93;;;;;;;-0.43;100.00;101597.06;10500018;28;20226;-69
2021/12/13 04:39:52;;;;;;;66.77;21.83;;;;;;;-0.43;100.00;101599.63;10500815;28;20231;-66
2021/12/13 04:45:01;;;;;;;58.00;20.30;;;;;;;-0.32;100.00;101606.19;10500231;28;20231;-69
2021/12/13 04:50:11;;;;;;;63.43;21.57;;;;;;;-0.29;100.00;101600.34;10500397;28;20679;-66
2021/12/13 04:55:18;;;;;;;60.33;21.53;;;;;;;-0.19;100.00;101597.50;10500148;28;20228;-67
2021/12/13 05:00:30;;;;;;;66.70;21.13;;;;;;;-0.21;100.00;101594.84;10500067;28;20234;-65
2021/12/13 05:05:36;;;;;;;53.83;21.13;;;;;;;-0.25;100.00;101598.06;10499647;28;20226;-70
2021/12/13 05:10:43;;;;;;;62.40;22.50;;;;;;;-0.24;100.00;101604.91;10499761;28;20216;-68
2021/12/13 05:15:55;;;;;;;64.33;21.63;;;;;;;-0.21;100.00;101625.47;10499831;28;20669;-66
2021/12/13 05:21:04;;;;;;;72.93;22.90;;;;;;;-0.26;100.00;101618.38;10504926;28;20238;-66
2021/12/13 05:26:08;;;;;;;81.07;24.47;;;;;;;-0.33;100.00;101609.50;10507690;28;20230;-63
2021/12/13 05:31:19;;;;;;;77.20;25.87;;;;;;;-0.36;100.00;101604.25;10507418;28;20224;-67
2021/12/13 05:36:24;;;;;;;75.70;25.03;;;;;;;-0.35;100.00;101608.59;10507710;28;20546;-68
2021/12/13 05:41:30;;;;;;;86.73;27.53;;;;;;;-0.48;100.00;101615.47;10507356;28;20226;-64
2021/12/13 05:46:39;;;;;;;93.00;27.77;;;;;;;-0.55;100.00;101623.59;10507004;28;20236;-69
2021/12/13 05:51:47;;;;;;;104.20;28.33;;;;;;;-0.42;100.00;101628.56;10506658;28;20220;-68
2021/12/13 05:56:54;;;;;;;100.83;26.50;;;;;;;-0.51;100.00;101651.88;10506618;28;20222;-68
2021/12/13 06:02:11;;;;;;;95.43;26.77;;;;;;;-0.39;100.00;101641.47;10506631;28;20307;-69
2021/12/13 06:07:22;;;;;;;88.67;27.00;;;;;;;-0.35;100.00;101651.94;10505995;28;20595;-67
2021/12/13 06:12:31;;;;;;;97.23;28.93;;;;;;;-0.26;100.00;101657.50;10506140;28;20222;-68
2021/12/13 06:17:40;;;;;;;100.03;28.23;;;;;;;-0.31;100.00;101666.59;10505643;28;20212;-64
2021/12/13 06:22:44;;;;;;;108.70;28.67;;;;;;;-0.36;100.00;101662.03;10505702;28;20226;-67
2021/12/13 06:27:50;;;;;;;91.63;26.50;;;;;;;-0.44;100.00;101671.81;10505484;28;20232;-64
2021/12/13 06:32:57;;;;;;;90.43;26.40;;;;;;;-0.42;100.00;101682.09;10504593;28;20211;-64
2021/12/13 06:38:22;;;;;;;96.57;25.93;;;;;;;-0.40;100.00;101689.03;10505082;28;20228;-64
2021/12/13 06:43:28;;;;;;;90.67;26.03;;;;;;;-0.40;100.00;101691.56;10504972;28;20222;-64
2021/12/13 06:48:40;;;;;;;94.90;26.27;;;;;;;-0.55;100.00;101685.63;10504083;28;20372;-63
2021/12/13 06:54:01;;;;;;;88.87;26.20;;;;;;;-0.53;100.00;101696.81;10504821;28;20222;-66
2021/12/13 06:59:07;;;;;;;85.70;25.20;;;;;;;-0.54;100.00;101696.72;10504081;28;20220;-66
2021/12/13 07:04:13;;;;;;;90.37;26.83;;;;;;;-0.58;100.00;101702.44;10504290;28;20294;-68
2021/12/13 07:09:24;;;;;;;79.70;25.00;;;;;;;-0.65;100.00;101713.97;10503614;28;20255;-68
2021/12/13 07:14:37;;;;;;;87.67;25.83;;;;;;;-0.52;100.00;101716.41;10503755;28;20224;-65
2021/12/13 07:19:44;;;;;;;83.03;23.90;;;;;;;-0.53;100.00;101729.94;10102861;28;10000051;-67
2021/12/13 07:24:50;;;;;;;87.73;23.60;;;;;;;-0.46;100.00;101721.84;10446957;28;20224;-64
2021/12/13 07:29:56;;;;;;;83.93;23.63;;;;;;;-0.45;100.00;101731.25;10421707;28;20218;-66
2021/12/13 07:35:06;;;;;;;81.13;23.70;;;;;;;-0.55;100.00;101735.78;10417306;28;20839;-66
2021/12/13 07:40:36;;;;;;;78.40;23.27;;;;;;;-0.57;100.00;101743.31;10444888;28;20243;-68
2021/12/13 07:45:45;;;;;;;80.70;23.83;;;;;;;-0.73;100.00;101748.34;10456781;28;20220;-66
2021/12/13 07:51:02;;;;;;;83.30;23.53;;;;;;;-0.65;100.00;101747.09;10456728;28;20229;-67
2021/12/13 07:56:06;;;;;;;76.07;24.27;;;;;;;-0.65;100.00;101746.22;10433775;28;20213;-66
2021/12/13 08:01:15;;;;;;;70.93;22.93;;;;;;;-0.64;100.00;101759.03;10416018;28;20237;-65
2021/12/13 08:06:25;;;;;;;84.93;25.10;;;;;;;-0.73;100.00;101758.53;10439043;28;20308;-67
2021/12/13 08:11:43;;;;;;;76.40;23.30;;;;;;;-0.75;100.00;101762.66;10456836;28;20224;-67
2021/12/13 08:16:48;;;;;;;77.90;24.77;;;;;;;-0.58;100.00;101755.97;10468504;28;20223;-68
2021/12/13 08:21:57;;;;;;;68.03;22.33;;;;;;;-0.43;100.00;101759.41;10498470;28;20223;-67
2021/12/13 08:27:07;;;;;;;72.60;21.60;;;;;;;-0.42;100.00;101756.03;10443027;28;20213;-67
2021/12/13 08:32:16;;;;;;;78.07;24.40;;;;;;;-0.50;100.00;101753.06;10415089;28;20217;-67
2021/12/13 08:37:26;;;;;;;68.97;22.90;;;;;;;-0.46;100.00;101759.19;10414902;28;20239;-70
2021/12/13 08:42:32;;;;;;;69.27;22.87;;;;;;;-0.56;100.00;101757.81;10414770;28;20256;-68
2021/12/13 08:47:44;;;;;;;73.17;23.17;;;;;;;-0.51;100.00;101750.41;10414501;28;20233;-67
2021/12/13 08:52:54;;;;;;;78.73;24.23;;;;;;;-0.54;100.00;101747.72;10414085;28;20566;-68
2021/12/13 08:58:10;;;;;;;76.90;23.53;;;;;;;-0.53;100.00;101758.00;10414346;28;20563;-69
2021/12/13 09:03:28;;;;;;;66.83;21.43;;;;;;;-0.65;100.00;101761.50;10414510;28;20217;-68
2021/12/13 09:08:37;;;;;;;65.13;21.33;;;;;;;-0.63;100.00;101760.81;10416945;28;20297;-68
2021/12/13 09:13:44;;;;;;;57.87;22.00;;;;;;;-0.63;100.00;101760.81;10416160;28;20679;-66
2021/12/13 09:18:50;;;;;;;66.63;21.50;;;;;;;-0.60;100.00;101768.63;10472155;28;20227;-69
2021/12/13 09:23:54;;;;;;;67.47;20.40;;;;;;;-0.57;100.00;101762.84;10496313;28;20216;-70
2021/12/13 09:29:02;;;;;;;63.23;21.67;;;;;;;-0.65;100.00;101759.84;10424567;28;20232;-68
2021/12/13 09:34:10;;;;;;;72.60;22.43;;;;;;;-0.70;100.00;101751.06;10414096;28;20629;-67
2021/12/13 09:39:21;;;;;;;68.70;23.63;;;;;;;-0.59;100.00;101744.03;10415731;28;20225;-68
2021/12/13 09:44:32;;;;;;;67.67;20.57;;;;;;;-0.60;100.00;101750.78;10413273;28;20210;-68
2021/12/13 09:49:39;;;;;;;54.53;20.30;;;;;;;-0.58;100.00;101758.50;10451505;28;20220;-66
2021/12/13 09:54:48;;;;;;;61.17;20.93;;;;;;;-0.51;100.00;101748.75;10455025;28;20256;-67
2021/12/13 09:59:53;;;;;;;69.80;22.27;;;;;;;-0.46;100.00;101747.34;10453889;28;20240;-66
2021/12/13 10:04:57;;;;;;;57.63;21.10;;;;;;;-0.37;100.00;101752.06;10454325;28;20217;-68
2021/12/13 10:10:07;;;;;;;72.40;22.13;;;;;;;-0.50;100.00;101742.84;10423425;28;20260;-66
2021/12/13 10:15:14;;;;;;;62.90;21.17;;;;;;;-0.49;100.00;101753.94;10420480;28;20539;-69
2021/12/13 10:20:21;;;;;;;70.67;22.50;;;;;;;-0.65;100.00;101751.31;10419649;28;20312;-68
2021/12/13 10:25:34;;;;;;;62.97;21.50;;;;;;;-0.69;100.00;101750.25;10479749;28;20265;-68
2021/12/13 10:30:47;;;;;;;70.93;22.53;;;;;;;-0.59;100.00;101752.56;10420140;28;20763;-67
2021/12/13 10:35:53;;;;;;;61.47;23.40;;;;;;;-0.47;100.00;101755.81;10419700;28;20305;-66
2021/12/13 10:41:00;;;;;;;69.20;22.53;;;;;;;-0.49;100.00;101749.72;10419357;28;20233;-67
2021/12/13 10:46:10;;;;;;;60.47;22.60;;;;;;;-0.41;100.00;101748.47;10420441;28;20577;-67
2021/12/13 10:51:17;;;;;;;64.93;22.00;;;;;;;-0.36;100.00;101753.81;10460049;28;20282;-66
2021/12/13 10:56:25;;;;;;;64.33;22.20;;;;;;;-0.43;100.00;101750.06;10459705;28;20426;-67
2021/12/13 11:01:33;;;;;;;62.83;21.80;;;;;;;-0.55;100.00;101736.63;10460139;28;20225;-66
2021/12/13 11:06:39;;;;;;;74.90;25.10;;;;;;;-0.43;100.00;101728.81;10459321;28;20221;-68
2021/12/13 11:11:48;;;;;;;60.33;23.63;;;;;;;-0.50;100.00;101722.47;10461431;28;20231;-67
2021/12/13 11:16:55;;;;;;;60.97;23.47;;;;;;;-0.38;100.00;101728.25;10461394;28;20221;-68
2021/12/13 11:22:02;;;;;;;70.67;23.87;;;;;;;-0.40;100.00;101736.63;10462112;28;20694;-67
2021/12/13 11:27:11;;;;;;;70.73;23.53;;;;;;;-0.37;100.00;101741.88;10460368;28;20291;-66
2021/12/13 11:32:44;;;;;;;82.13;26.83;;;;;;;-0.41;100.00;101732.28;10461538;28;20220;-65
2021/12/13 11:38:04;;;;;;;73.63;28.23;;;;;;;-0.25;100.00;101740.00;10449806;28;20693;-66
2021/12/13 11:43:47;;;;;;;78.43;27.37;;;;;;;-0.13;100.00;101731.34;10416802;28;20858;-66
2021/12/13 11:49:02;;;;;;;74.30;25.90;;;;;;;-0.05;100.00;101729.19;10416184;28;20236;-65
2021/12/13 11:54:30;;;;;;;84.03;27.03;;;;;;;-0.03;100.00;101725.94;10416520;28;20293;-67
2021/12/13 11:59:49;;;;;;;79.77;27.93;;;;;;;-0.05;100.00;101724.97;10416053;28;20236;-65
2021/12/13 12:05:43;;;;;;;80.57;27.77;;;;;;;0.00;100.00;101731.22;10416175;28;20248;-68
2021/12/13 12:11:31;;;;;;;87.77;28.57;;;;;;;0.05;100.00;101721.25;10415802;28;20220;-65
2021/12/13 12:16:40;;;;;;;96.23;30.50;;;;;;;0.11;100.00;101733.44;10415059;28;20546;-65
2021/12/13 12:21:57;;;;;;;87.03;30.60;;;;;;;0.14;100.00;101731.09;10415658;28;20302;-67
2021/12/13 12:27:05;;;;;;;87.10;28.77;;;;;;;0.19;100.00;101722.84;10415075;28;20225;-66
2021/12/13 12:32:14;;;;;;;92.57;30.23;;;;;;;0.25;100.00;101712.97;10416651;28;20369;-66
2021/12/13 12:37:46;;;;;;;85.30;29.87;;;;;;;0.29;100.00;101722.56;10415640;28;20233;-67
2021/12/13 12:42:52;;;;;;;88.73;32.00;;;;;;;0.34;100.00;101720.25;10414748;28;20231;-69
2021/12/13 12:48:10;;;;;;;105.10;32.30;;;;;;;0.23;100.00;101721.34;10431016;28;20233;-67
2021/12/13 12:53:18;;;;;;;88.10;30.87;;;;;;;0.21;100.00;101712.75;10459147;28;20315;-66
2021/12/13 12:58:29;;;;;;;87.17;29.87;;;;;;;0.26;100.00;101727.47;10458133;28;20308;-68
2021/12/13 13:03:36;;;;;;;89.63;29.60;;;;;;;0.34;100.00;101728.78;10458449;28;20228;-67
2021/12/13 13:08:42;;;;;;;97.90;33.97;;;;;;;0.26;100.00;101736.84;10457613;28;20217;-68
2021/12/13 13:13:47;;;;;;;90.60;33.07;;;;;;;0.32;100.00;101738.03;10458396;28;20684;-68
2021/12/13 13:18:53;;;;;;;89.47;32.43;;;;;;;0.37;100.00;101743.38;10457781;28;20307;-67
2021/12/13 13:24:00;;;;;;;84.73;29.53;;;;;;;0.40;100.00;101741.00;10457363;28;20303;-70
2021/12/13 13:29:07;;;;;;;95.07;31.70;;;;;;;0.33;100.00;101738.91;10452010;28;20240;-66
2021/12/13 13:34:14;;;;;;;92.27;31.13;;;;;;;0.29;100.00;101740.44;10414916;28;20671;-69
2021/12/13 13:39:22;;;;;;;86.17;32.63;;;;;;;0.24;100.00;101748.63;10430008;28;20669;-65
2021/12/13 13:44:28;;;;;;;83.60;30.83;;;;;;;0.25;100.00;101755.50;10421574;28;20825;-67
2021/12/13 13:49:33;;;;;;;372.63;192.13;;;;;;;0.28;100.00;101758.19;10420951;28;20546;-70
2021/12/13 13:54:36;;;;;;;95.20;32.93;;;;;;;0.40;100.00;101757.19;10420992;28;20225;-67
2021/12/13 13:59:41;;;;;;;87.03;31.30;;;;;;;0.41;100.00;101758.06;10439893;28;20231;-66
2021/12/13 14:04:50;;;;;;;106.90;35.73;;;;;;;0.44;100.00;101758.22;10461176;28;20573;-67
2021/12/13 14:09:56;;;;;;;88.33;32.50;;;;;;;0.41;100.00;101753.84;10461299;28;20217;-66
2021/12/13 14:15:07;;;;;;;90.40;32.77;;;;;;;0.44;100.00;101764.22;10464875;28;20275;-67
2021/12/13 14:20:25;;;;;;;96.47;33.17;;;;;;;0.42;100.00;101764.91;10463891;28;20243;-70
2021/12/13 14:25:33;;;;;;;102.47;33.70;;;;;;;0.38;100.00;101779.19;10463888;28;20220;-66
2021/12/13 14:30:39;;;;;;;102.13;34.67;;;;;;;0.30;100.00;101770.25;10453478;28;20245;-68
2021/12/13 14:35:43;;;;;;;112.07;33.60;;;;;;;0.32;100.00;101763.56;10422821;28;20627;-67
2021/12/13 14:40:51;;;;;;;109.50;33.93;;;;;;;0.36;100.00;101769.72;10422278;28;20231;-67
2021/12/13 14:45:58;;;;;;;102.77;33.87;;;;;;;0.37;100.00;101766.34;10431516;28;20319;-65
2021/12/13 14:51:07;;;;;;;105.33;35.07;;;;;;;0.34;100.00;101772.19;10461777;28;20213;-66
2021/12/13 14:56:15;;;;;;;106.73;34.53;;;;;;;0.33;100.00;101780.63;10463002;28;20217;-68
2021/12/13 15:01:22;;;;;;;125.47;37.60;;;;;;;0.31;100.00;101776.25;10450863;28;20239;-67
2021/12/13 15:06:27;;;;;;;101.40;34.37;;;;;;;0.27;100.00;101782.88;10421608;28;20229;-67
2021/12/13 15:11:37;;;;;;;107.07;33.33;;;;;;;0.26;100.00;101790.44;10432364;28;20216;-66
2021/12/13 15:16:43;;;;;;;101.77;34.23;;;;;;;0.30;100.00;101797.44;10462250;28;20224;-66
2021/12/13 15:21:50;;;;;;;92.90;31.67;;;;;;;0.30;100.00;101800.88;10447582;28;20232;-66
2021/12/13 15:26:59;;;;;;;129.80;41.73;;;;;;;0.40;100.00;101798.03;10440256;28;20209;-73
2021/12/13 15:32:06;;;;;;;123.60;40.53;;;;;;;0.46;100.00;101802.59;10423191;28;20323;-66
2021/12/13 15:37:23;;;;;;;122.13;37.83;;;;;;;0.38;100.00;101809.81;10420512;28;20210;-67
2021/12/13 15:42:26;;;;;;;123.03;39.70;;;;;;;0.29;100.00;101818.69;10431970;28;20205;-66
2021/12/13 15:53:01;;;;;;;112.77;35.27;;;;;;;0.29;100.00;101809.34;10436802;28;20221;-66
2021/12/13 15:58:15;;;;;;;114.87;38.20;;;;;;;0.30;100.00;101810.22;10430045;28;20212;-69
2021/12/13 16:03:21;;;;;;;116.90;38.23;;;;;;;0.38;100.00;101814.94;10437638;28;20547;-67
2021/12/13 16:08:42;;;;;;;118.07;37.73;;;;;;;0.24;100.00;101822.66;10418489;28;20217;-66
2021/12/13 16:13:46;;;;;;;128.13;38.40;;;;;;;0.18;100.00;101835.06;10444026;28;20218;-66
2021/12/13 16:18:54;;;;;;;116.73;37.90;;;;;;;0.30;100.00;101830.63;10097990;28;9999635;-66
2021/12/13 16:24:03;;;;;;;114.80;36.67;;;;;;;0.27;100.00;101838.13;10438492;28;20220;-67
2021/12/13 16:29:10;;;;;;;117.83;35.93;;;;;;;0.23;100.00;101826.88;10454037;28;20185;-66
2021/12/13 16:34:20;;;;;;;128.30;37.77;;;;;;;0.18;100.00;101822.31;10456542;28;20200;-66
2021/12/13 16:39:29;;;;;;;122.23;39.20;;;;;;;0.23;100.00;101839.63;10456157;28;20188;-68
2021/12/13 16:44:38;;;;;;;117.90;38.40;;;;;;;0.23;100.00;101839.63;10452649;28;20299;-68
2021/12/13 16:49:44;;;;;;;118.37;38.20;;;;;;;0.14;100.00;101844.22;10453300;28;20188;-66
2021/12/13 16:54:53;;;;;;;137.17;40.80;;;;;;;0.21;100.00;101836.13;10456070;28;20197;-66
2021/12/13 17:00:00;;;;;;;114.87;36.97;;;;;;;0.14;100.00;101843.38;10441710;28;20192;-66
2021/12/13 17:05:10;;;;;;;113.73;38.43;;;;;;;0.11;100.00;101854.28;10447364;28;20450;-66
2021/12/13 17:10:18;;;;;;;120.13;37.40;;;;;;;0.24;100.00;101853.28;10454806;28;20208;-67
2021/12/13 17:15:32;;;;;;;120.37;38.67;;;;;;;0.14;100.00;101851.03;10467548;28;20202;-69
2021/12/13 17:20:36;;;;;;;127.63;38.30;;;;;;;-0.04;100.00;101856.88;10497791;28;20208;-65
2021/12/13 17:25:40;;;;;;;108.93;37.73;;;;;;;-0.09;100.00;101850.59;10422807;28;20217;-67
2021/12/13 17:30:49;;;;;;;139.55;47.63;;;;;;;0.04;100.00;101852.19;10422230;28;20457;-64
2021/12/13 17:35:53;;;;;;;126.47;37.17;;;;;;;-0.09;100.00;101862.50;10422844;28;20233;-65
2021/12/13 17:40:59;;;;;;;124.17;37.07;;;;;;;0.02;100.00;101855.47;10421976;28;20208;-64
2021/12/13 17:46:05;;;;;;;118.77;37.87;;;;;;;0.02;100.00;101869.06;10421432;28;20659;-64
2021/12/13 17:51:13;;;;;;;117.17;37.93;;;;;;;-0.01;100.00;101867.25;10422123;28;20205;-64
2021/12/13 17:56:31;;;;;;;114.03;35.60;;;;;;;-0.07;100.00;101872.00;10421328;28;20193;-64
2021/12/13 18:01:37;;;;;;;106.50;34.87;;;;;;;0.07;100.00;101871.91;10421253;28;20243;-65
2021/12/13 18:06:47;;;;;;;109.60;35.20;;;;;;;-0.01;100.00;101869.81;10420960;28;20204;-64
2021/12/13 18:11:59;;;;;;;104.03;33.63;;;;;;;-0.02;100.00;101869.72;10420762;28;20308;-65
2021/12/13 18:17:18;;;;;;;117.83;39.43;;;;;;;-0.01;100.00;101867.25;10467690;28;20316;-65
2021/12/13 18:22:29;;;;;;;119.43;38.93;;;;;;;0.00;100.00;101878.34;10502664;28;20561;-67
2021/12/13 18:27:36;;;;;;;113.13;36.73;;;;;;;-0.08;100.00;101870.25;10462317;28;20558;-66
2021/12/13 18:32:41;;;;;;;119.67;38.23;;;;;;;-0.05;100.00;101878.06;10428566;28;20211;-67
2021/12/13 18:37:44;;;;;;;117.73;37.80;;;;;;;-0.01;100.00;101876.56;10454633;28;20595;-64
2021/12/13 18:43:02;;;;;;;127.73;38.87;;;;;;;0.01;100.00;101892.84;10420544;28;20245;-64
2021/12/13 18:48:09;;;;;;;129.90;37.97;;;;;;;0.03;100.00;101897.22;10420425;28;20612;-66
2021/12/13 18:53:18;;;;;;;116.93;36.87;;;;;;;-0.06;100.00;101895.84;10419152;28;20300;-64
2021/12/13 18:58:32;;;;;;;117.47;37.03;;;;;;;-0.19;100.00;101896.81;10418998;28;20221;-66
2021/12/13 19:03:39;;;;;;;127.60;38.17;;;;;;;-0.25;100.00;101899.03;10418648;28;20232;-66
2021/12/13 19:08:47;;;;;;;123.57;37.97;;;;;;;-0.33;100.00;101896.81;10427356;28;20220;-67
2021/12/13 19:14:14;;;;;;;115.63;35.33;;;;;;;-0.34;100.00;101911.22;10445675;28;20721;-66
2021/12/13 19:19:22;;;;;;;118.00;34.43;;;;;;;-0.35;100.00;101912.03;10417797;28;20324;-65
2021/12/13 19:24:30;;;;;;;111.33;35.53;;;;;;;-0.34;100.00;101910.34;10417874;28;20239;-65
2021/12/13 19:29:39;;;;;;;119.83;33.17;;;;;;;-0.43;100.00;101908.16;10418371;28;20240;-65
2021/12/13 19:34:48;;;;;;;112.47;33.87;;;;;;;-0.39;100.00;101915.19;10417433;28;20233;-66
2021/12/13 19:39:56;;;;;;;109.10;33.07;;;;;;;-0.45;100.00;101907.16;10416984;28;20224;-66
2021/12/13 19:45:09;;;;;;;109.10;33.80;;;;;;;-0.64;100.00;101916.22;10417067;28;20237;-66
2021/12/13 19:50:22;;;;;;;105.07;31.93;;;;;;;-0.61;100.00;101912.19;10416814;28;20245;-67
2021/12/13 19:55:29;;;;;;;118.27;33.70;;;;;;;-0.69;100.00;101918.47;10416445;28;20239;-65
2021/12/13 20:00:39;;;;;;;102.07;32.97;;;;;;;-0.68;100.00;101917.69;10416896;28;20217;-66
2021/12/13 20:05:46;;;;;;;97.77;31.37;;;;;;;-0.78;100.00;101912.84;10435298;28;20225;-68
2021/12/13 20:10:54;;;;;;;113.03;31.70;;;;;;;-0.90;100.00;101904.47;10457338;28;20225;-66
2021/12/13 20:16:04;;;;;;;92.83;29.23;;;;;;;-0.86;100.00;101906.41;10471898;28;20551;-67
2021/12/13 20:21:15;;;;;;;92.37;31.27;;;;;;;-0.85;100.00;101902.19;10492588;28;20243;-67
2021/12/13 20:26:21;;;;;;;99.63;27.47;;;;;;;-0.79;100.00;101910.19;10449887;28;20229;-66
2021/12/13 20:31:30;;;;;;;82.33;26.00;;;;;;;-0.75;100.00;101907.03;10457013;28;20217;-67
2021/12/13 20:36:37;;;;;;;90.27;27.67;;;;;;;-0.84;100.00;101904.81;10457129;28;20660;-67
2021/12/13 20:41:47;;;;;;;78.97;26.40;;;;;;;-1.09;100.00;101901.59;10456332;28;20231;-65
2021/12/13 20:46:54;;;;;;;82.53;26.93;;;;;;;-1.07;100.00;101896.59;10456611;28;20343;-66
2021/12/13 20:52:02;;;;;;;75.47;25.60;;;;;;;-1.14;100.00;101913.19;10455516;28;20295;-68
2021/12/13 20:57:14;;;;;;;79.20;23.57;;;;;;;-1.13;100.00;101907.28;10456340;28;20230;-66
2021/12/13 21:02:22;;;;;;;74.70;22.80;;;;;;;-1.14;100.00;101902.09;10455831;28;20565;-66
2021/12/13 21:07:31;;;;;;;68.80;23.03;;;;;;;-1.10;100.00;101901.50;10455837;28;20220;-68
2021/12/13 21:12:38;;;;;;;73.40;23.43;;;;;;;-1.11;100.00;101899.72;10455920;28;20220;-65
2021/12/13 21:17:51;;;;;;;69.50;22.40;;;;;;;-1.17;100.00;101911.31;10484422;28;20230;-67
2021/12/13 21:22:57;;;;;;;71.47;21.20;;;;;;;-1.30;100.00;101923.19;10496878;28;20226;-66
2021/12/13 21:28:06;;;;;;;61.50;20.40;;;;;;;-1.36;100.00;101921.16;10497006;28;20216;-64
2021/12/13 21:33:18;;;;;;;60.23;19.47;;;;;;;-1.38;100.00;101924.41;10490467;28;20314;-69
2021/12/13 21:43:51;;;;;;;55.67;19.67;;;;;;;-1.36;100.00;101933.88;10413780;28;20229;-68
2021/12/13 21:48:57;;;;;;;64.07;20.07;;;;;;;-1.27;100.00;101929.34;10413882;28;20264;-68
2021/12/13 21:54:06;;;;;;;60.03;20.10;;;;;;;-1.29;100.00;101925.84;10414281;28;20608;-64
2021/12/13 21:59:13;;;;;;;76.25;25.77;;;;;;;-1.15;100.00;101926.69;10445656;28;20439;-66
2021/12/13 22:04:23;;;;;;;72.47;20.50;;;;;;;-1.26;100.00;101933.66;10461373;28;20744;-68
2021/12/13 22:09:32;;;;;;;69.53;21.60;;;;;;;-1.28;100.00;101942.00;10462477;28;20226;-65
2021/12/13 22:14:42;;;;;;;56.13;18.57;;;;;;;-1.49;100.00;101935.56;10465185;28;20216;-66
2021/12/13 22:19:51;;;;;;;49.93;18.67;;;;;;;-1.49;100.00;101926.28;10503504;28;20677;-65
2021/12/13 22:24:56;;;;;;;57.00;19.10;;;;;;;-1.37;100.00;101915.97;10503062;28;20656;-65
2021/12/13 22:30:01;;;;;;;52.23;18.13;;;;;;;-1.43;100.00;101902.84;10503034;28;20216;-68
2021/12/13 22:35:10;;;;;;;75.33;25.83;;;;;;;-1.38;100.00;101909.13;10467988;28;20312;-67
2021/12/13 22:40:17;;;;;;;50.53;19.97;;;;;;;-1.52;100.00;101915.00;10460751;28;20220;-64
2021/12/13 22:45:21;;;;;;;62.37;17.73;;;;;;;-1.59;100.00;101908.63;10460838;28;20233;-66
2021/12/13 22:50:31;;;;;;;44.63;16.40;;;;;;;-1.65;100.00;101909.91;10460745;28;20295;-66
2021/12/13 22:55:40;;;;;;;65.67;17.70;;;;;;;-1.73;100.00;101904.38;10460458;28;20223;-65
2021/12/13 23:00:51;;;;;;;60.50;20.03;;;;;;;-1.71;100.00;101901.91;10460672;28;20304;-66
2021/12/13 23:06:01;;;;;;;71.40;21.20;;;;;;;-1.63;100.00;101899.06;10439631;28;20556;-66